METAR Data
IDs: Format: Raw Decoded Include TAF

Data at: 0424 UTC 26 Sep 2018

KHTL 260353Z AUTO 22005KT 10SM FEW085 18/18 A2972 RMK AO2 RAE12 SLP060 P0004 T01830178
KHTL 260328Z AUTO 20007KT 10SM FEW055 OVC080 19/18 A2973 RMK AO2 RAE12 P0004 T01890178
KHTL 260318Z AUTO 21005KT 10SM VCTS FEW006 SCT055 OVC080 19/18 A2973 RMK AO2 RAE12 P0004 T01890178
KHTL 260306Z AUTO 21007KT 8SM VCTS -RA FEW012 BKN034 OVC080 19/18 A2973 RMK AO2 LTG DSNT E P0004 T01890178
KHTL 260256Z AUTO 23008KT 2SM VCTS +RA BR FEW007 BKN030 OVC044 19/19 A2973 RMK AO2 P0003 T01940189
KHTL 260253Z AUTO 21006KT 1 3/4SM +RA BR FEW007 BKN029 OVC042 19/19 A2973 RMK AO2 RAB24 SLP064 P0033 60033 T01940189 56015
KHTL 260249Z AUTO 20007KT 1 1/2SM +RA BR FEW009 BKN029 OVC046 19/19 A2974 RMK AO2 RAB24 P0029
KHTL 260237Z AUTO 19006KT 1 3/4SM +RA BR SCT030 BKN049 OVC060 20/18 A2974 RMK AO2 LTG DSNT SW RAB24 P0011 T02000183
KHTL 260153Z AUTO 18004KT 10SM CLR 20/18 A2974 RMK AO2 SLP066 T02000183
KHTL 260053Z AUTO 18005KT 10SM BKN090 20/19 A2976 RMK AO2 SLP073 T02000189
KHTL 252353Z AUTO 15005KT 10SM FEW035 SCT043 BKN050 21/18 A2978 RMK AO2 SLP080 60001 T02060183 10244 20206 55014
KHTL 252253Z AUTO 15005KT 10SM CLR 21/18 A2978 RMK AO2 SLP080 T02110183
KHTL 252153Z AUTO 18006KT 10SM CLR 23/18 A2980 RMK AO2 SLP087 T02280183
KHTL 252053Z AUTO 20007KT 10SM BKN050 OVC080 22/18 A2982 RMK AO2 RAE1956 SLP094 P0000 60001 T02220178 58020
KHTL 251953Z AUTO 21007G18KT 8SM -RA FEW033 BKN048 OVC055 22/17 A2985 RMK AO2 RAB36 SLP106 P0001 T02170172
KHTL 251853Z AUTO 19009KT 10SM SCT055 24/17 A2986 RMK AO2 SLP108 T02390167
KHTL 251753Z AUTO 18008KT 10SM FEW037 BKN047 OVC055 24/17 A2988 RMK AO2 SLP115 T02390167 10244 20183 58013
KHTL 251653Z AUTO 19008KT 10SM SCT034 23/16 A2989 RMK AO2 SLP119 T02280161
KHTL 251553Z AUTO 22006KT 10SM FEW038 22/17 A2991 RMK AO2 SLP126 T02170167
KHTL 251509Z AUTO 21006KT 10SM FEW023 SCT029 21/18 A2992 RMK AO2 T02110178
KHTL 251500Z AUTO 20006KT 10SM SCT023 BKN029 21/18 A2992 RMK AO2 T02060178
KHTL 251453Z AUTO 22005KT 10SM FEW018 SCT025 BKN031 21/17 A2992 RMK AO2 SLP129 T02060172 58002
KHTL 251445Z AUTO 21004KT 10SM BKN022 BKN031 20/17 A2992 RMK AO2 T02000172
KHTL 251353Z AUTO 21006KT 10SM FEW023 19/18 A2992 RMK AO2 SLP131 T01940178
KHTL 251346Z AUTO 21006KT 10SM FEW006 SCT025 19/18 A2992 RMK AO2 T01940178
KHTL 251322Z AUTO 21005KT 9SM BKN025 19/18 A2993 RMK AO2 T01940183
KHTL 251308Z AUTO 21005KT 8SM SCT023 19/18 A2993 RMK AO2 T01890178
KHTL 251253Z AUTO 20005KT 7SM FEW003 BKN023 18/18 A2993 RMK AO2 SLP134 T01830178
KHTL 251244Z AUTO 19008KT 6SM BR SCT005 BKN025 BKN050 18/18 A2993 RMK AO2 T01830178
KHTL 251206Z AUTO 20005KT 4SM BR BKN005 OVC010 18/18 A2993 RMK AO2 CIG 003V007 T01830178
KHTL 251153Z AUTO 20006KT 4SM BR OVC003 18/18 A2993 RMK AO2 CIG 002V008 SLP133 60001 70003 T01830178 10183 20172 53002
KHTL 251053Z AUTO 18005KT 3SM BR OVC002 18/17 A2992 RMK AO2 SLP132 T01780172
KHTL 251048Z AUTO 18005KT 3SM BR OVC002 18/17 A2992 RMK AO2
KHTL 251018Z AUTO 20004KT 2 1/2SM BR OVC003 18/17 A2992 RMK AO2 T01780172
KHTL 250953Z AUTO 20006KT 6SM BR OVC004 18/17 A2992 RMK AO2 SLP131 T01780172
KHTL 250853Z AUTO 20006KT 9SM OVC004 18/17 A2992 RMK AO2 SLP131 60001 T01780172 56008
KHTL 250840Z AUTO 19005KT 10SM OVC004 18/17 A2992 RMK AO2 T01780172
KHTL 250815Z AUTO VRB05KT 10SM OVC003 18/17 A2992 RMK AO2 T01780172
KHTL 250802Z AUTO 19006KT 10SM OVC004 18/17 A2993 RMK AO2 T01780172
KHTL 250753Z AUTO 18005KT 10SM OVC005 18/17 A2993 RMK AO2 SLP135 T01780172
KHTL 250710Z AUTO 18005KT 9SM BKN006 OVC013 17/17 A2994 RMK AO2 CIG 004V010 T01720172
KHTL 250653Z AUTO 16004KT 10SM BKN005 OVC014 17/17 A2994 RMK AO2 RAE23 CIG 003V008 SLP140 P0001 T01720172
KHTL 250649Z AUTO 17004KT 8SM SCT005 BKN014 OVC019 17/17 A2995 RMK AO2 RAE23 P0001
KHTL 250607Z AUTO 15005KT 7SM -RA SCT005 OVC017 17/17 A2995 RMK AO2 P0000 T01720167
KHTL 250553Z AUTO 15005KT 7SM -RA BKN005 OVC017 17/17 A2996 RMK AO2 RAE0459B43 CIG 003V010 SLP144 P0000 60002 T01720167 10172 20161 58016
KHTL 250528Z AUTO 14004KT 8SM BKN007 BKN013 OVC025 17/17 A2997 RMK AO2 RAE0459 CIG 005V010 P0000 T01720167
KHTL 250513Z AUTO 14005KT 7SM SCT006 SCT015 OVC025 17/17 A2997 RMK AO2 RAE0459 P0000 T01720167
KHTL 250453Z AUTO 14006KT 4SM -RA BR BKN006 OVC027 17/17 A2998 RMK AO2 RAE0356B39 SLP152 P0002 T01720167 401830106
KHTL 250428Z AUTO 14004KT 6SM BR OVC006 17/17 A2999 RMK AO2 RAE0356 CIG 004V009 P0001 T01720167
KHTL 250414Z AUTO 14006KT 4SM BR OVC007 17/16 A3000 RMK AO2 RAE0356 CIG 004V010 P0001 T01670161
KHTL 250407Z AUTO 14005KT 5SM BR BKN005 OVC009 17/16 A3000 RMK AO2 RAE0356 P0000 T01670161
KHTL 250353Z AUTO 15006KT 3SM -RA BR OVC004 17/16 A3000 RMK AO2 RAB46 SLP158 P0000 T01670161
KHTL 250331Z AUTO 14008G14KT 4SM BR OVC003 17/16 A3000 RMK AO2 T01670161
KHTL 250253Z AUTO 14007KT 2 1/2SM BR OVC003 17/16 A3001 RMK AO2 SLP161 T01670161 58010
KHTL 250219Z AUTO 16009KT 3SM BR OVC004 16/16 A3002 RMK AO2 T01610156
KHTL 250208Z AUTO 14009G17KT 2 1/2SM BR OVC004 16/16 A3002 RMK AO2 T01610156
KHTL 250153Z AUTO 14009KT 4SM BR OVC005 16/16 A3002 RMK AO2 SLP168 T01610156
KHTL 250053Z AUTO 12005KT 3SM BR OVC005 16/15 A3002 RMK AO2 SLP169 T01560150
KHTL 250038Z AUTO 13008KT 4SM BR OVC005 16/15 A3003 RMK AO2 T01560150
KHTL 242353Z AUTO 11009KT 4SM BR OVC006 16/14 A3004 RMK AO2 CIG 005V011 SLP175 T01560144 10183 20156 58010
KHTL 242314Z AUTO 11006KT 5SM BR BKN007 OVC012 16/14 A3006 RMK AO2 CIG 005V010 T01560144
KHTL 242307Z AUTO 12008KT 2 1/2SM BR BKN007 OVC011 16/14 A3006 RMK AO2 CIG 005V009 T01560144
KHTL 242253Z AUTO 13007KT 3SM BR OVC009 16/14 A3007 RMK AO2 CIG 006V012 SLP184 T01560144
KHTL 242226Z AUTO 13009KT 9SM OVC013 17/14 A3007 RMK AO2 T01670139
KHTL 242153Z AUTO 14006KT 10SM OVC018 17/13 A3007 RMK AO2 SLP183 T01720133
KHTL 242053Z AUTO 14010KT 10SM BKN018 OVC025 18/13 A3009 RMK AO2 SLP190 T01780133 56027
KHTL 242007Z AUTO 15008KT 10SM SCT008 BKN020 OVC024 17/14 A3011 RMK AO2 T01670144
KHTL 241953Z AUTO 14007KT 7SM BKN008 OVC012 16/14 A3012 RMK AO2 CIG 005V009 SLP202 T01560144
KHTL 241853Z AUTO 12009KT 7SM OVC008 16/14 A3014 RMK AO2 SLP207 T01560139
KHTL 241833Z AUTO 12011G18KT 9SM OVC009 16/14 A3015 RMK AO2 CIG 008V012 T01560139
KHTL 241753Z AUTO 11013G21KT 10SM OVC012 17/13 A3017 RMK AO2 SLP219 T01670133 10183 20106 58019
KHTL 241739Z AUTO 13009G20KT 10SM BKN014 OVC020 17/13 A3017 RMK AO2 T01670133
KHTL 241653Z AUTO 12013G20KT 10SM OVC022 18/13 A3020 RMK AO2 SLP228 T01780128